DAAG Airport Information

Runway Information
Runway 05 Length 11483 ft width 197 ft
Elevation 72 ft Threshold 0 ft Heading 53
Runway 23 Length 11483 ft Width 197 ft
Elevation 82 ft Threshold 0 ft Heading 233
Runway 09 Length 11483 ft width 148 ft
Elevation 56 ft Threshold 0 ft Heading 92
Runway 27 Length 11483 ft Width 148 ft
Elevation 82 ft Threshold 0 ft Heading 272
Airport Frequencies
Type APP Name ALGER APP Frequency 121.4 MHZ
Type GND Name ALGER GND Frequency 121.8 MHZ
Type TWR Name ALGER TWR Frequency 118.7 MHZ
Airport Navaids
Type VOR-DME Name Alger Frequency 112500 KHZ
Type NDB Name Houari Boumediene Frequency 416 KHZ
Type VOR Name Alger Frequency 113900 KHZ
Type NDB Name Houari Boumediene Frequency 370 KHZ
Airport Weather Information & NOTAM
ADDS - METARS form results

(1730 UTC 24 May 2018)
 
METAR text: DAAG 241700Z 05009KT 9999 FEW030 28/17 Q1010
Conditions at: DAAG (DAR-EL-BEIDA/HOU, DZ) observed 1700 UTC 24 May 2018
Temperature: 28.0°C (82°F)
Dewpoint: 17.0°C (63°F) [RH = 51%]
Pressure (altimeter): 29.82 inches Hg (1010.0 mb)
Winds: from the NE (50 degrees) at 10 MPH (9 knots; 4.7 m/s)
Visibility: 6 or more miles (10+ km)
Ceiling: at least 12,000 feet AGL
Clouds: few clouds at 3000 feet AGL
Weather: no significant weather observed at this time